createdAt,value
2023-05-02T00:02:09.481Z,100337.31
2023-05-02T00:04:37.303Z,100334.53
2023-05-02T00:07:05.729Z,100331.75
2023-05-02T00:09:32.512Z,100329.94
2023-05-02T00:11:59.797Z,100324.94
2023-05-02T00:14:27.526Z,100325.97
2023-05-02T00:16:56.448Z,100328.53
2023-05-02T00:19:26.930Z,100333.69
2023-05-02T00:21:56.628Z,100331.69
2023-05-02T00:24:27.051Z,100333.69
2023-05-02T00:26:55.953Z,100326.81
2023-05-02T00:29:24.593Z,100329.41
2023-05-02T00:31:53.233Z,100325.16
2023-05-02T00:34:21.025Z,100325.06
2023-05-02T00:36:48.510Z,100329.56
2023-05-02T00:39:18.013Z,100335.81
2023-05-02T00:41:45.949Z,100327.88
2023-05-02T00:44:13.663Z,100328.81
2023-05-02T00:46:41.509Z,100324.66
2023-05-02T00:49:09.471Z,100325.59
2023-05-02T00:51:37.339Z,100321.88
2023-05-02T00:54:05.656Z,100311.41
2023-05-02T00:56:32.645Z,100330.75
2023-05-02T00:59:02.177Z,100325.63
2023-05-02T01:01:29.845Z,100316.16
2023-05-02T01:04:26.628Z,100326.09
2023-05-02T01:07:16.901Z,100321.81
2023-05-02T01:10:15.359Z,100321.88
2023-05-02T01:12:51.961Z,100323.72
2023-05-02T01:15:23.041Z,100322.84
2023-05-02T01:17:52.531Z,100313.13
2023-05-02T01:20:23.777Z,100322.06
2023-05-02T01:22:52.645Z,100316.88
2023-05-02T01:25:32.278Z,100312.59
2023-05-02T01:28:14.286Z,100312.41
2023-05-02T01:30:45.980Z,100316.78
2023-05-02T01:33:17.713Z,100317.91
2023-05-02T01:35:49.869Z,100313.50
2023-05-02T01:38:19.318Z,100323.16
2023-05-02T01:40:50.383Z,100323.06
2023-05-02T01:43:20.709Z,100318.78
2023-05-02T01:45:52.803Z,100317.91
2023-05-02T01:48:22.166Z,100312.63
2023-05-02T01:50:51.733Z,100317.81
2023-05-02T01:53:22.553Z,100310.06
2023-05-02T01:55:52.992Z,100310.91
2023-05-02T01:58:22.378Z,100310.94
2023-05-02T02:00:51.818Z,100312.78
2023-05-02T02:03:21.188Z,100309.22
2023-05-02T02:05:50.048Z,100307.50
2023-05-02T02:08:17.689Z,100311.88
2023-05-02T02:10:50.036Z,100304.09
2023-05-02T02:13:22.389Z,100309.28
2023-05-02T02:15:53.849Z,100302.44
2023-05-02T02:18:27.872Z,100310.31
2023-05-02T02:20:56.048Z,100310.38
2023-05-02T02:23:27.455Z,100306.81
2023-05-02T02:25:57.175Z,100305.81
2023-05-02T02:28:26.972Z,100301.38
2023-05-02T02:30:56.436Z,100310.13
2023-05-02T02:33:49.189Z,100306.75
2023-05-02T02:36:28.409Z,100297.19
2023-05-02T02:39:11.419Z,100292.03
2023-05-02T02:41:47.994Z,100306.03
2023-05-02T02:44:22.028Z,100306.03
2023-05-02T02:47:26.927Z,100296.25
2023-05-02T02:50:27.610Z,100290.16
2023-05-02T02:53:16.557Z,100297.25
2023-05-02T02:56:10.547Z,100292.78
2023-05-02T02:58:44.812Z,100296.25
2023-05-02T03:01:20.670Z,100301.41
2023-05-02T03:03:51.528Z,100300.63
2023-05-02T03:06:20.936Z,100291.88
2023-05-02T03:08:48.753Z,100301.63
2023-05-02T03:11:15.594Z,100303.34
2023-05-02T03:13:44.430Z,100303.41
2023-05-02T03:16:37.245Z,100305.03
2023-05-02T03:19:05.430Z,100305.97
2023-05-02T03:21:33.859Z,100305.03
2023-05-02T03:24:01.660Z,100308.41
2023-05-02T03:26:29.706Z,100300.53
2023-05-02T03:28:59.365Z,100304.84
2023-05-02T03:31:28.160Z,100308.34
2023-05-02T03:33:55.857Z,100303.16
2023-05-02T03:36:23.721Z,100311.75
2023-05-02T03:38:51.457Z,100308.25
2023-05-02T03:41:21.108Z,100314.19
2023-05-02T03:43:49.933Z,100314.28
2023-05-02T03:46:19.421Z,100311.63
2023-05-02T03:48:49.156Z,100319.69
2023-05-02T03:51:16.082Z,100317.13
2023-05-02T03:53:45.119Z,100319.75
2023-05-02T03:56:20.213Z,100320.75
2023-05-02T03:58:49.668Z,100332.00
2023-05-02T04:01:19.289Z,100328.56
2023-05-02T04:03:46.515Z,100335.50
2023-05-02T04:06:14.493Z,100343.41
2023-05-02T04:08:41.566Z,100338.16
2023-05-02T04:11:10.325Z,100333.78
2023-05-02T04:13:39.018Z,100336.28
2023-05-02T04:16:07.120Z,100345.84
2023-05-02T04:18:35.324Z,100349.41
2023-05-02T04:21:03.414Z,100341.53
2023-05-02T04:23:33.243Z,100345.91
2023-05-02T04:26:01.014Z,100347.63
2023-05-02T04:28:27.870Z,100355.31
2023-05-02T04:30:58.029Z,100355.28
2023-05-02T04:33:25.884Z,100353.69
2023-05-02T04:35:53.156Z,100356.31
2023-05-02T04:38:20.058Z,100356.44
2023-05-02T04:40:51.882Z,100362.53
2023-05-02T04:43:19.682Z,100355.50
2023-05-02T04:45:47.360Z,100362.50
2023-05-02T04:48:14.400Z,100356.31
2023-05-02T04:50:45.541Z,100353.59
2023-05-02T04:53:13.320Z,100360.56
2023-05-02T04:55:43.195Z,100352.69
2023-05-02T04:58:12.021Z,100356.25
2023-05-02T05:00:39.828Z,100359.72
2023-05-02T05:03:09.334Z,100348.38
2023-05-02T05:05:38.252Z,100348.53
2023-05-02T05:08:07.813Z,100352.78
2023-05-02T05:10:36.575Z,100352.75
2023-05-02T05:13:04.886Z,100351.88
2023-05-02T05:15:34.430Z,100348.28
2023-05-02T05:18:02.409Z,100343.94
2023-05-02T05:20:31.215Z,100350.94
2023-05-02T05:22:58.024Z,100357.09
2023-05-02T05:25:26.958Z,100355.22
2023-05-02T05:27:55.868Z,100362.28
2023-05-02T05:30:23.236Z,100363.06
2023-05-02T05:32:50.953Z,100368.41
2023-05-02T05:35:19.868Z,100353.56
2023-05-02T05:37:48.637Z,100361.47
2023-05-02T05:40:17.048Z,100366.66
2023-05-02T05:42:43.787Z,100369.25
2023-05-02T05:45:12.739Z,100359.56
2023-05-02T05:47:39.574Z,100362.19
2023-05-02T05:50:08.757Z,100369.94
2023-05-02T05:52:37.661Z,100370.72
2023-05-02T05:55:06.178Z,100367.13
2023-05-02T05:57:35.135Z,100368.03
2023-05-02T06:00:02.295Z,100374.06
2023-05-02T06:02:31.815Z,100372.28
2023-05-02T06:04:59.645Z,100360.91
2023-05-02T06:07:27.377Z,100372.94
2023-05-02T06:09:55.210Z,100375.44
2023-05-02T06:12:23.965Z,100372.72
2023-05-02T06:14:52.772Z,100384.81
2023-05-02T06:17:20.434Z,100385.66
2023-05-02T06:19:48.191Z,100370.63
2023-05-02T06:22:17.173Z,100379.09
2023-05-02T06:24:44.949Z,100381.59
2023-05-02T06:27:11.757Z,100382.09
2023-05-02T06:29:39.390Z,100373.13
2023-05-02T06:32:06.889Z,100381.72
2023-05-02T06:34:36.051Z,100381.88
2023-05-02T06:37:03.828Z,100385.09
2023-05-02T06:39:31.418Z,100387.50
2023-05-02T06:41:58.695Z,100378.63
2023-05-02T06:44:26.393Z,100382.00
2023-05-02T06:46:56.319Z,100382.72
2023-05-02T06:49:24.050Z,100382.63
2023-05-02T06:51:50.960Z,100376.19
2023-05-02T06:54:17.799Z,100377.22
2023-05-02T06:56:45.681Z,100372.81
2023-05-02T06:59:13.484Z,100376.00
2023-05-02T07:01:42.381Z,100380.00
2023-05-02T07:04:11.280Z,100385.06
2023-05-02T07:06:41.882Z,100371.69
2023-05-02T07:09:10.869Z,100372.53
2023-05-02T07:11:38.564Z,100367.84
2023-05-02T07:14:06.326Z,100370.06
2023-05-02T07:16:35.272Z,100378.50
2023-05-02T07:19:04.788Z,100374.75
2023-05-02T07:21:34.318Z,100380.56
2023-05-02T07:24:02.021Z,100370.69
2023-05-02T07:26:29.113Z,100363.59
2023-05-02T07:28:56.797Z,100369.28
2023-05-02T07:31:23.749Z,100381.28
2023-05-02T07:33:50.710Z,100387.09
2023-05-02T07:36:18.356Z,100382.34
2023-05-02T07:38:46.328Z,100383.88
2023-05-02T07:41:14.816Z,100378.19
2023-05-02T07:43:43.537Z,100385.97
2023-05-02T07:46:11.455Z,100386.88
2023-05-02T07:48:42.957Z,100392.06
2023-05-02T07:51:12.361Z,100387.69
2023-05-02T07:53:40.137Z,100394.06
2023-05-02T07:56:09.071Z,100397.41
2023-05-02T07:58:37.472Z,100398.88
2023-05-02T08:01:04.944Z,100391.13
2023-05-02T08:03:32.797Z,100388.34
2023-05-02T08:06:02.298Z,100386.91
2023-05-02T08:08:29.988Z,100384.53
2023-05-02T08:10:57.588Z,100382.53
2023-05-02T08:13:27.311Z,100384.13
2023-05-02T08:15:58.647Z,100384.81
2023-05-02T08:18:25.962Z,100388.88
2023-05-02T08:20:53.467Z,100394.34
2023-05-02T08:23:20.428Z,100387.13
2023-05-02T08:25:47.991Z,100386.59
2023-05-02T08:28:15.547Z,100383.72
2023-05-02T08:30:42.774Z,100387.34
2023-05-02T08:33:11.546Z,100383.81
2023-05-02T08:35:39.325Z,100382.31
2023-05-02T08:38:07.703Z,100374.88
2023-05-02T08:40:42.406Z,100375.75
2023-05-02T08:43:16.483Z,100383.53
2023-05-02T08:45:45.624Z,100387.19
2023-05-02T08:48:16.596Z,100393.00
2023-05-02T08:50:46.904Z,100381.38
2023-05-02T08:53:14.869Z,100374.00
2023-05-02T08:55:43.307Z,100386.72
2023-05-02T08:58:13.807Z,100373.84
2023-05-02T09:00:43.312Z,100366.50
2023-05-02T09:03:17.012Z,100375.47
2023-05-02T09:05:52.571Z,100375.97
2023-05-02T09:08:24.540Z,100368.25
2023-05-02T09:10:53.343Z,100369.16
2023-05-02T09:13:40.000Z,100381.53
2023-05-02T09:16:33.065Z,100378.41
2023-05-02T09:19:01.302Z,100371.94
2023-05-02T09:21:43.482Z,100370.91
2023-05-02T09:24:18.279Z,100374.91
2023-05-02T09:27:01.069Z,100373.63
2023-05-02T09:29:38.956Z,100367.94
2023-05-02T09:32:07.857Z,100367.53
2023-05-02T09:34:37.577Z,100363.88
2023-05-02T09:37:06.585Z,100378.06
2023-05-02T09:39:35.190Z,100362.94
2023-05-02T09:42:05.955Z,100368.91
2023-05-02T09:44:38.344Z,100367.84
2023-05-02T09:47:08.735Z,100369.38
2023-05-02T09:49:46.773Z,100378.09
2023-05-02T09:52:22.810Z,100374.00
2023-05-02T09:54:53.552Z,100373.69
2023-05-02T09:57:22.031Z,100367.97
2023-05-02T09:59:57.732Z,100365.13
2023-05-02T10:02:26.210Z,100369.09
2023-05-02T10:04:57.141Z,100366.72
2023-05-02T10:07:26.554Z,100373.50
2023-05-02T10:09:58.725Z,100368.84
2023-05-02T10:12:30.852Z,100375.75
2023-05-02T10:15:03.916Z,100359.09
2023-05-02T10:17:34.314Z,100376.28
2023-05-02T10:20:05.525Z,100364.50
2023-05-02T10:22:37.402Z,100352.84
2023-05-02T10:25:07.190Z,100361.28
2023-05-02T10:27:34.943Z,100351.59
2023-05-02T10:30:04.899Z,100352.91
2023-05-02T10:32:38.160Z,100367.22
2023-05-02T10:35:08.329Z,100359.31
2023-05-02T10:37:41.052Z,100349.59
2023-05-02T10:40:14.941Z,100352.63
2023-05-02T10:42:48.106Z,100346.94
2023-05-02T10:45:37.974Z,100345.59
2023-05-02T10:48:25.464Z,100345.28
2023-05-02T10:50:57.936Z,100348.50
2023-05-02T10:53:34.043Z,100345.47
2023-05-02T10:56:22.155Z,100348.69
2023-05-02T10:58:51.473Z,100343.03
2023-05-02T11:01:26.511Z,100342.72
2023-05-02T11:03:59.164Z,100344.53
2023-05-02T11:06:33.669Z,100340.66
2023-05-02T11:09:14.775Z,100346.22
2023-05-02T11:11:45.820Z,100352.75
2023-05-02T11:14:38.716Z,100351.84
2023-05-02T11:17:08.534Z,100349.63
2023-05-02T11:19:38.932Z,100359.91
2023-05-02T11:22:32.949Z,100351.25
2023-05-02T11:25:00.985Z,100347.09
2023-05-02T11:27:38.301Z,100346.81
2023-05-02T11:30:07.112Z,100339.50
2023-05-02T11:32:44.770Z,100344.34
2023-05-02T11:35:23.728Z,100352.81
2023-05-02T11:37:56.080Z,100344.69
2023-05-02T11:40:25.028Z,100356.91
2023-05-02T11:42:53.233Z,100356.75
2023-05-02T11:45:21.649Z,100354.41
2023-05-02T11:47:51.078Z,100359.88
2023-05-02T11:50:18.873Z,100348.88
2023-05-02T11:52:47.385Z,100351.06
2023-05-02T11:55:16.063Z,100357.53
2023-05-02T11:57:44.106Z,100349.38
2023-05-02T12:00:13.158Z,100348.25
2023-05-02T12:02:43.110Z,100347.59
2023-05-02T12:05:12.729Z,100341.78
2023-05-02T12:07:45.263Z,100337.72
2023-05-02T12:10:14.578Z,100340.88
2023-05-02T12:12:44.863Z,100341.31
2023-05-02T12:15:13.409Z,100336.53
2023-05-02T12:17:45.258Z,100344.59
2023-05-02T12:20:13.471Z,100340.69
2023-05-02T12:22:41.563Z,100339.81
2023-05-02T12:25:09.700Z,100336.03
2023-05-02T12:27:38.126Z,100345.25
2023-05-02T12:30:06.612Z,100336.28
2023-05-02T12:32:35.992Z,100324.69
2023-05-02T12:35:04.339Z,100323.16
2023-05-02T12:37:32.059Z,100325.81
2023-05-02T12:40:00.491Z,100333.75
2023-05-02T12:42:28.564Z,100325.03
2023-05-02T12:44:57.092Z,100328.34
2023-05-02T12:47:25.372Z,100327.31
2023-05-02T12:49:58.322Z,100316.28
2023-05-02T12:52:55.006Z,100318.06
2023-05-02T12:55:24.829Z,100322.97
2023-05-02T12:58:02.949Z,100323.44
2023-05-02T13:00:32.741Z,100313.50
2023-05-02T13:03:00.371Z,100320.16
2023-05-02T13:05:28.001Z,100321.16
2023-05-02T13:07:57.214Z,100326.00
2023-05-02T13:10:26.276Z,100315.84
2023-05-02T13:12:54.682Z,100316.63
2023-05-02T13:15:22.581Z,100315.59
2023-05-02T13:17:52.416Z,100299.41
2023-05-02T13:20:20.272Z,100307.13
2023-05-02T13:22:48.002Z,100303.91
2023-05-02T13:25:15.738Z,100299.22
2023-05-02T13:27:43.482Z,100303.53
2023-05-02T13:30:12.065Z,100298.28
2023-05-02T13:32:42.599Z,100295.53
2023-05-02T13:35:13.963Z,100301.69
2023-05-02T13:37:42.123Z,100291.59
2023-05-02T13:40:10.008Z,100307.72
2023-05-02T13:42:37.821Z,100301.19
2023-05-02T13:45:06.617Z,100298.22
2023-05-02T13:47:34.442Z,100294.59
2023-05-02T13:50:02.631Z,100299.81
2023-05-02T13:52:30.490Z,100303.28
2023-05-02T13:54:58.192Z,100294.44
2023-05-02T13:57:25.795Z,100292.56
2023-05-02T13:59:53.548Z,100284.81
2023-05-02T14:02:21.094Z,100287.31
2023-05-02T14:04:48.909Z,100294.28
2023-05-02T14:07:16.582Z,100289.31
2023-05-02T14:09:44.608Z,100285.97
2023-05-02T14:12:13.482Z,100292.81
2023-05-02T14:14:41.494Z,100291.91
2023-05-02T14:17:09.226Z,100280.88
2023-05-02T14:19:37.021Z,100289.44
2023-05-02T14:22:04.533Z,100287.88
2023-05-02T14:24:32.474Z,100285.91
2023-05-02T14:27:00.332Z,100280.56
2023-05-02T14:29:27.960Z,100287.00
2023-05-02T14:31:55.694Z,100288.28
2023-05-02T14:34:26.913Z,100292.78
2023-05-02T14:36:54.802Z,100290.38
2023-05-02T14:39:22.652Z,100291.34
2023-05-02T14:41:50.390Z,100287.31
2023-05-02T14:44:18.499Z,100291.66
2023-05-02T14:46:46.778Z,100292.44
2023-05-02T14:49:14.487Z,100300.63
2023-05-02T14:51:43.162Z,100299.63
2023-05-02T14:54:10.842Z,100298.41
2023-05-02T14:56:38.513Z,100305.03
2023-05-02T14:59:06.439Z,100301.44
2023-05-02T15:01:34.362Z,100310.22
2023-05-02T15:04:06.790Z,100303.50
2023-05-02T15:06:36.579Z,100298.25
2023-05-02T15:09:05.290Z,100308.78
2023-05-02T15:11:33.123Z,100296.84
2023-05-02T15:14:01.046Z,100300.69
2023-05-02T15:16:29.653Z,100294.91
2023-05-02T15:18:57.306Z,100297.19
2023-05-02T15:21:24.961Z,100289.59
2023-05-02T15:23:52.478Z,100295.59
2023-05-02T15:26:20.273Z,100296.06
2023-05-02T15:28:48.092Z,100289.78
2023-05-02T15:31:16.007Z,100286.91
2023-05-02T15:33:44.836Z,100295.34
2023-05-02T15:36:12.533Z,100290.97
2023-05-02T15:38:42.893Z,100286.69
2023-05-02T15:41:11.592Z,100292.34
2023-05-02T15:43:39.221Z,100291.16
2023-05-02T15:46:06.769Z,100295.28
2023-05-02T15:48:35.132Z,100286.69
2023-05-02T15:51:05.543Z,100285.50
2023-05-02T15:53:33.413Z,100282.13
2023-05-02T15:56:01.205Z,100289.78
2023-05-02T15:58:29.046Z,100288.94
2023-05-02T16:00:56.651Z,100287.50
2023-05-02T16:03:27.544Z,100286.25
2023-05-02T16:05:56.153Z,100285.00
2023-05-02T16:08:24.965Z,100282.22
2023-05-02T16:10:53.682Z,100286.06
2023-05-02T16:13:22.414Z,100285.41
2023-05-02T16:15:52.497Z,100281.63
2023-05-02T16:18:23.534Z,100297.47
2023-05-02T16:20:52.942Z,100287.25
2023-05-02T16:23:22.266Z,100288.63
2023-05-02T16:25:50.025Z,100285.50
2023-05-02T16:28:17.824Z,100284.88
2023-05-02T16:30:45.602Z,100293.91
2023-05-02T16:33:13.958Z,100283.47
2023-05-02T16:35:41.670Z,100294.34
2023-05-02T16:38:09.386Z,100282.72
2023-05-02T16:40:37.064Z,100283.13
2023-05-02T16:43:05.722Z,100285.03
2023-05-02T16:45:33.542Z,100295.19
2023-05-02T16:48:01.043Z,100296.56
2023-05-02T16:50:29.384Z,100306.25
2023-05-02T16:52:57.237Z,100295.06
2023-05-02T16:55:24.983Z,100297.03
2023-05-02T16:57:52.726Z,100305.09
2023-05-02T17:00:20.885Z,100300.69
2023-05-02T17:02:49.636Z,100305.53
2023-05-02T17:05:17.712Z,100305.19
2023-05-02T17:07:46.320Z,100303.41
2023-05-02T17:10:14.095Z,100316.22
2023-05-02T17:12:44.118Z,100314.84
2023-05-02T17:15:11.955Z,100314.31
2023-05-02T17:17:40.559Z,100327.22
2023-05-02T17:20:11.133Z,100321.63
2023-05-02T17:22:41.173Z,100327.97
2023-05-02T17:25:10.940Z,100327.78
2023-05-02T17:27:40.991Z,100333.66
2023-05-02T17:30:11.015Z,100330.91
2023-05-02T17:32:38.856Z,100345.38
2023-05-02T17:35:07.079Z,100347.16
2023-05-02T17:37:38.186Z,100341.91
2023-05-02T17:40:07.363Z,100341.97
2023-05-02T17:42:36.122Z,100332.56
2023-05-02T17:45:05.350Z,100335.09
2023-05-02T17:47:33.875Z,100347.25
2023-05-02T17:50:05.212Z,100342.00
2023-05-02T17:52:37.492Z,100350.44
2023-05-02T17:55:06.992Z,100350.50
2023-05-02T17:57:34.676Z,100358.22
2023-05-02T18:00:04.869Z,100358.94
2023-05-02T18:02:33.879Z,100359.16
2023-05-02T18:05:03.800Z,100362.41
2023-05-02T18:07:31.917Z,100365.41
2023-05-02T18:10:02.576Z,100372.28
2023-05-02T18:12:32.286Z,100377.75
2023-05-02T18:15:02.027Z,100373.56
2023-05-02T18:17:29.947Z,100380.25
2023-05-02T18:19:58.390Z,100394.88
2023-05-02T18:22:26.568Z,100392.69
2023-05-02T18:24:55.959Z,100393.44
2023-05-02T18:27:25.628Z,100395.41
2023-05-02T18:29:54.552Z,100399.72
2023-05-02T18:32:23.302Z,100396.28
2023-05-02T18:34:51.123Z,100399.16
2023-05-02T18:37:19.102Z,100402.50
2023-05-02T18:39:47.108Z,100408.03
2023-05-02T18:42:15.832Z,100408.31
2023-05-02T18:44:46.358Z,100409.31
2023-05-02T18:47:14.815Z,100410.56
2023-05-02T18:49:44.242Z,100413.78
2023-05-02T18:52:12.209Z,100410.97
2023-05-02T18:54:40.333Z,100414.91
2023-05-02T18:57:09.328Z,100424.09
2023-05-02T18:59:37.566Z,100419.84
2023-05-02T19:02:05.719Z,100432.66
2023-05-02T19:04:33.954Z,100425.50
2023-05-02T19:07:01.850Z,100430.72
2023-05-02T19:09:29.796Z,100433.56
2023-05-02T19:11:58.743Z,100430.47
2023-05-02T19:14:27.744Z,100440.63
2023-05-02T19:16:56.329Z,100445.31
2023-05-02T19:19:24.471Z,100445.88
2023-05-02T19:21:56.011Z,100449.03
2023-05-02T19:24:24.017Z,100448.09
2023-05-02T19:26:51.988Z,100458.66
2023-05-02T19:29:19.883Z,100457.84
2023-05-02T19:31:47.829Z,100450.00
2023-05-02T19:34:15.748Z,100445.19
2023-05-02T19:36:44.690Z,100456.72
2023-05-02T19:39:13.523Z,100458.69
2023-05-02T19:41:42.865Z,100460.06
2023-05-02T19:44:11.190Z,100468.59
2023-05-02T19:46:40.135Z,100462.31
2023-05-02T19:49:08.032Z,100463.13
2023-05-02T19:51:35.889Z,100465.81
2023-05-02T19:54:03.960Z,100464.31
2023-05-02T19:56:33.487Z,100461.66
2023-05-02T19:59:01.526Z,100460.22
2023-05-02T20:01:29.815Z,100462.63
2023-05-02T20:03:58.173Z,100467.09
2023-05-02T20:06:26.733Z,100474.63
2023-05-02T20:08:55.919Z,100473.41
2023-05-02T20:11:23.946Z,100466.81
2023-05-02T20:13:54.340Z,100459.56
2023-05-02T20:16:23.485Z,100466.34
2023-05-02T20:18:53.401Z,100466.97
2023-05-02T20:21:21.380Z,100465.81
2023-05-02T20:23:48.777Z,100465.81
2023-05-02T20:26:18.162Z,100473.56
2023-05-02T20:28:46.141Z,100469.53
2023-05-02T20:31:15.150Z,100467.31
2023-05-02T20:33:45.798Z,100470.22
2023-05-02T20:36:14.962Z,100465.66
2023-05-02T20:38:42.860Z,100472.09
2023-05-02T20:41:14.773Z,100472.19
2023-05-02T20:43:45.129Z,100469.47
2023-05-02T20:46:14.067Z,100462.63
2023-05-02T20:48:43.097Z,100463.13
2023-05-02T20:51:10.062Z,100460.75
2023-05-02T20:53:38.158Z,100462.41
2023-05-02T20:56:05.512Z,100457.44
2023-05-02T20:58:32.895Z,100467.09
2023-05-02T21:00:59.950Z,100469.25
2023-05-02T21:03:28.003Z,100462.88
2023-05-02T21:05:59.186Z,100468.63
2023-05-02T21:08:26.040Z,100461.19
2023-05-02T21:10:53.802Z,100461.13
2023-05-02T21:13:22.431Z,100459.16
2023-05-02T21:15:49.635Z,100463.31
2023-05-02T21:18:16.539Z,100464.84
2023-05-02T21:20:43.744Z,100464.84
2023-05-02T21:23:11.419Z,100469.94
2023-05-02T21:25:38.722Z,100466.94
2023-05-02T21:28:06.213Z,100469.06
2023-05-02T21:30:33.100Z,100478.06
2023-05-02T21:32:59.967Z,100477.66
2023-05-02T21:35:27.458Z,100476.09
2023-05-02T21:37:54.346Z,100479.38
2023-05-02T21:40:21.868Z,100482.16
2023-05-02T21:42:48.552Z,100476.28
2023-05-02T21:45:15.621Z,100480.94
2023-05-02T21:47:43.551Z,100479.69
2023-05-02T21:50:11.123Z,100481.25
2023-05-02T21:52:37.957Z,100483.38
2023-05-02T21:55:04.889Z,100470.00
2023-05-02T21:57:31.659Z,100482.03
2023-05-02T21:59:58.489Z,100472.53
2023-05-02T22:02:25.539Z,100477.16
2023-05-02T22:04:54.451Z,100477.50
2023-05-02T22:07:21.245Z,100484.03
2023-05-02T22:09:48.610Z,100488.00
2023-05-02T22:12:15.577Z,100479.38
2023-05-02T22:14:45.582Z,100472.19
2023-05-02T22:17:13.688Z,100479.16
2023-05-02T22:19:40.702Z,100480.59
2023-05-02T22:22:07.777Z,100483.22
2023-05-02T22:24:34.641Z,100482.28
2023-05-02T22:27:01.931Z,100479.75
2023-05-02T22:29:29.484Z,100477.59
2023-05-02T22:31:56.745Z,100489.81
2023-05-02T22:34:23.650Z,100483.84
2023-05-02T22:36:50.422Z,100487.88
2023-05-02T22:39:17.382Z,100492.66
2023-05-02T22:41:47.679Z,100484.22
2023-05-02T22:44:14.589Z,100487.16
2023-05-02T22:46:41.518Z,100484.50
2023-05-02T22:49:12.487Z,100481.88
2023-05-02T22:51:40.384Z,100474.84
2023-05-02T22:54:08.151Z,100487.28
2023-05-02T22:56:38.644Z,100490.03
2023-05-02T22:59:05.680Z,100493.97
2023-05-02T23:01:33.521Z,100491.25
2023-05-02T23:04:00.688Z,100484.75
2023-05-02T23:06:28.928Z,100489.97
2023-05-02T23:08:55.985Z,100500.34
2023-05-02T23:11:22.903Z,100489.59
2023-05-02T23:13:50.047Z,100489.38
2023-05-02T23:16:16.909Z,100493.28
2023-05-02T23:18:43.788Z,100496.28
2023-05-02T23:21:16.078Z,100495.97
2023-05-02T23:23:43.353Z,100487.38
2023-05-02T23:26:10.898Z,100488.75
2023-05-02T23:28:38.028Z,100485.53
2023-05-02T23:31:05.440Z,100497.47
2023-05-02T23:33:32.738Z,100491.13
2023-05-02T23:35:59.869Z,100494.00
2023-05-02T23:38:26.934Z,100479.19
2023-05-02T23:40:55.344Z,100495.25
2023-05-02T23:43:22.331Z,100491.88
2023-05-02T23:45:49.037Z,100486.59
2023-05-02T23:48:15.968Z,100491.63
2023-05-02T23:50:42.825Z,100486.50
2023-05-02T23:53:11.541Z,100488.31
2023-05-02T23:55:39.185Z,100485.41
2023-05-02T23:58:06.732Z,100488.22
